Time;durP1;ratioP1;P1;durP2;ratioP2;P2;SDS_P1;SDS_P2;PMS_P1;PMS_P2;Temp;Humidity;BMP_temperature;BMP_pressure;BME280_temperature;BME280_humidity;BME280_pressure;Samples;Min_cycle;Max_cycle;Signal;HPM_P1;HPM_P2
2022/03/26 00:00:18;;;;;;;138.50;79.87;;;;;;;5.18;94.29;102958.00;5031696;28;20874;-44
2022/03/26 00:02:46;;;;;;;140.70;80.30;;;;;;;5.17;94.69;102954.50;5032376;28;20531;-46
2022/03/26 00:05:16;;;;;;;125.57;76.33;;;;;;;5.15;94.72;102956.44;5032191;28;20436;-43
2022/03/26 00:07:44;;;;;;;131.23;77.93;;;;;;;5.13;94.58;102954.84;5031383;28;20466;-44
2022/03/26 00:10:12;;;;;;;131.80;81.77;;;;;;;5.13;94.95;102954.84;5031242;28;20866;-45
2022/03/26 00:12:40;;;;;;;144.40;84.73;;;;;;;5.12;95.51;102964.59;5032080;28;20440;-49
2022/03/26 00:15:09;;;;;;;139.70;84.47;;;;;;;5.09;95.76;102964.78;5031821;28;20438;-47
2022/03/26 00:17:37;;;;;;;137.03;81.00;;;;;;;5.06;95.51;102977.38;5031322;28;20551;-44
2022/03/26 00:20:06;;;;;;;131.17;78.83;;;;;;;5.01;95.66;102970.63;5032048;28;20531;-45
2022/03/26 00:22:35;;;;;;;146.60;81.67;;;;;;;4.97;95.84;102971.78;5031753;28;20468;-47
2022/03/26 00:25:03;;;;;;;131.97;79.90;;;;;;;4.92;95.81;102971.28;5031747;28;20542;-45
2022/03/26 00:27:31;;;;;;;117.57;72.67;;;;;;;4.90;95.80;102969.66;5031098;28;20522;-44
2022/03/26 00:29:59;;;;;;;138.77;79.10;;;;;;;4.87;95.89;102969.88;5031841;28;20872;-45
2022/03/26 00:32:26;;;;;;;124.27;78.27;;;;;;;4.85;95.81;102969.13;5031387;28;20478;-46
2022/03/26 00:34:54;;;;;;;121.37;79.03;;;;;;;4.85;96.44;102969.13;5031765;28;20539;-47
2022/03/26 00:37:22;;;;;;;125.27;74.33;;;;;;;4.84;95.94;102956.84;5031371;28;20555;-46
2022/03/26 00:39:51;;;;;;;128.20;76.40;;;;;;;4.84;96.38;102947.13;5031693;28;20431;-43
2022/03/26 00:42:19;;;;;;;123.57;77.03;;;;;;;4.83;96.26;102952.53;5031534;28;20483;-44
2022/03/26 00:44:46;;;;;;;120.03;69.87;;;;;;;4.83;96.58;102944.63;5036707;28;20822;-46
2022/03/26 00:47:14;;;;;;;129.87;75.17;;;;;;;4.85;96.52;102955.91;5031797;28;20551;-47
2022/03/26 00:49:41;;;;;;;123.87;78.30;;;;;;;4.88;96.84;102951.28;5031592;28;20527;-45
2022/03/26 00:52:09;;;;;;;116.80;74.77;;;;;;;4.87;97.08;102954.84;5031222;28;20575;-45
2022/03/26 00:54:37;;;;;;;138.40;75.90;;;;;;;4.91;97.12;102960.78;5031614;28;20432;-45
2022/03/26 00:57:06;;;;;;;109.53;69.27;;;;;;;4.92;97.18;102955.41;5031058;28;20480;-46
2022/03/26 00:59:33;;;;;;;109.30;69.60;;;;;;;4.92;97.13;102960.69;5031334;28;20434;-44
2022/03/26 01:02:01;;;;;;;114.00;74.87;;;;;;;4.92;97.74;102959.84;5031332;28;20527;-45
2022/03/26 01:04:29;;;;;;;119.97;71.80;;;;;;;4.92;97.49;102959.84;5031474;28;20440;-47
2022/03/26 01:06:57;;;;;;;122.90;72.63;;;;;;;4.92;97.17;102958.03;5030794;28;20464;-46
2022/03/26 01:09:25;;;;;;;118.50;72.23;;;;;;;4.95;97.41;102960.47;5031502;28;20523;-45
2022/03/26 01:11:52;;;;;;;117.63;74.60;;;;;;;4.97;97.86;102960.34;5031151;28;20562;-47
2022/03/26 01:14:22;;;;;;;112.57;70.17;;;;;;;4.99;97.90;102966.38;5031445;28;20522;-44
2022/03/26 01:16:50;;;;;;;123.60;74.77;;;;;;;4.98;97.95;102954.97;5030838;28;20586;-44
2022/03/26 01:19:17;;;;;;;127.93;72.50;;;;;;;4.98;97.80;102954.13;5031204;28;20512;-44
2022/03/26 01:21:45;;;;;;;125.67;72.60;;;;;;;4.96;97.64;102961.31;5049780;22;20503;-46
2022/03/26 01:24:13;;;;;;;123.57;75.47;;;;;;;4.93;98.04;102950.94;5035552;28;20432;-43
2022/03/26 01:26:41;;;;;;;122.97;73.17;;;;;;;4.94;98.07;102950.84;5034989;28;21012;-45
2022/03/26 01:29:09;;;;;;;126.33;75.50;;;;;;;4.96;98.12;102945.44;5035841;28;20436;-45
2022/03/26 01:31:38;;;;;;;120.57;73.20;;;;;;;4.96;97.90;102950.72;5035014;28;20522;-45
2022/03/26 01:34:06;;;;;;;121.97;75.60;;;;;;;4.97;97.99;102941.84;5035177;28;20443;-45
2022/03/26 01:36:33;;;;;;;131.23;76.50;;;;;;;4.99;97.45;102939.94;5034806;28;20986;-43
2022/03/26 01:39:01;;;;;;;115.43;75.77;;;;;;;5.00;97.79;102945.13;5035645;28;20432;-45
2022/03/26 01:41:29;;;;;;;127.10;74.17;;;;;;;5.03;97.38;102942.28;5035068;28;20539;-45
2022/03/26 01:43:56;;;;;;;121.43;72.37;;;;;;;5.04;97.87;102943.13;5035204;28;20531;-46
2022/03/26 01:46:24;;;;;;;135.70;76.30;;;;;;;5.06;97.88;102935.06;5042565;28;20462;-44
2022/03/26 01:48:54;;;;;;;117.00;72.80;;;;;;;5.07;97.47;102936.78;5049300;28;20434;-44
2022/03/26 01:51:22;;;;;;;115.70;75.33;;;;;;;5.07;98.06;102942.91;5043438;28;20601;-46
2022/03/26 01:53:52;;;;;;;128.80;75.63;;;;;;;5.05;97.84;102930.75;5050776;28;20892;-44
2022/03/26 01:56:21;;;;;;;127.33;78.00;;;;;;;5.05;98.13;102936.03;5054430;28;21037;-44
2022/03/26 01:58:49;;;;;;;121.60;78.17;;;;;;;5.05;97.79;102933.41;5055012;28;20442;-45
2022/03/26 02:01:17;;;;;;;130.43;75.00;;;;;;;5.03;98.07;102931.69;5054720;28;20818;-44
2022/03/26 02:03:45;;;;;;;129.37;76.40;;;;;;;5.02;98.38;102930.00;5055283;28;20521;-46
2022/03/26 02:06:14;;;;;;;118.13;76.80;;;;;;;4.99;98.16;102924.06;5054379;28;20473;-45
2022/03/26 02:08:42;;;;;;;122.40;72.57;;;;;;;4.97;98.57;102916.25;5054610;28;21212;-47
2022/03/26 02:11:10;;;;;;;121.33;74.13;;;;;;;4.94;98.33;102919.13;5038254;28;20550;-43
2022/03/26 02:13:54;;;;;;;126.00;72.23;;;;;;;4.91;98.30;102913.19;5032289;28;20440;-48
2022/03/26 02:16:23;;;;;;;114.93;72.27;;;;;;;4.87;98.88;102909.06;5024284;28;20462;-46
2022/03/26 02:18:52;;;;;;;114.53;70.77;;;;;;;4.82;98.49;102909.41;5034945;28;20455;-47
2022/03/26 02:21:22;;;;;;;112.40;72.53;;;;;;;4.80;98.61;102902.53;5034365;28;20467;-47
2022/03/26 02:23:51;;;;;;;115.13;70.17;;;;;;;4.78;98.31;102894.69;5034619;28;20531;-45
2022/03/26 02:26:25;;;;;;;119.13;72.20;;;;;;;4.75;98.77;102896.72;5033780;28;20464;-46
2022/03/26 02:28:54;;;;;;;124.30;72.53;;;;;;;4.72;98.17;102884.53;5034351;28;20944;-45
2022/03/26 02:31:23;;;;;;;122.53;75.63;;;;;;;4.70;98.12;102885.59;5034017;28;20460;-46
2022/03/26 02:33:51;;;;;;;125.37;76.20;;;;;;;4.67;98.68;102883.19;5034060;28;21020;-43
2022/03/26 02:36:18;;;;;;;131.47;76.23;;;;;;;4.67;98.77;102891.97;5033700;28;20981;-46
2022/03/26 02:38:47;;;;;;;117.07;75.30;;;;;;;4.66;98.75;102887.59;5034002;28;20444;-45
2022/03/26 02:41:15;;;;;;;114.10;73.73;;;;;;;4.66;98.19;102882.31;5033826;28;20464;-46
2022/03/26 02:43:43;;;;;;;129.80;73.67;;;;;;;4.66;98.69;102887.59;5034187;28;20424;-45
2022/03/26 02:46:11;;;;;;;129.73;73.50;;;;;;;4.66;98.61;102890.25;5041837;28;20535;-50
2022/03/26 02:48:39;;;;;;;125.37;73.70;;;;;;;4.68;98.35;102890.16;5047923;28;20951;-45
2022/03/26 02:51:07;;;;;;;127.37;72.10;;;;;;;4.67;98.27;102894.59;5053434;28;20938;-47
2022/03/26 02:53:34;;;;;;;115.83;70.47;;;;;;;4.66;98.81;102898.19;5053855;28;20485;-47
2022/03/26 02:56:04;;;;;;;139.53;78.37;;;;;;;4.65;98.64;102903.59;5053330;28;20435;-48
2022/03/26 02:58:32;;;;;;;131.80;75.07;;;;;;;4.64;98.55;102904.53;5053916;28;20802;-43
2022/03/26 03:00:59;;;;;;;134.10;78.50;;;;;;;4.63;98.64;102884.38;5053639;28;20461;-45
2022/03/26 03:03:27;;;;;;;119.57;75.10;;;;;;;4.64;98.43;102891.31;5053682;28;20427;-45
2022/03/26 03:05:55;;;;;;;142.17;81.17;;;;;;;4.66;98.21;102894.72;5053412;28;20518;-47
2022/03/26 03:08:23;;;;;;;137.13;76.70;;;;;;;4.68;98.21;102893.66;5053720;28;20445;-47
2022/03/26 03:10:51;;;;;;;136.10;76.40;;;;;;;4.73;97.33;102895.97;5053513;28;20494;-47
2022/03/26 03:13:22;;;;;;;125.53;77.00;;;;;;;4.75;96.82;102889.63;5053235;28;20873;-43
2022/03/26 03:15:49;;;;;;;135.97;82.90;;;;;;;4.76;97.12;102885.19;5052942;28;20793;-45
2022/03/26 03:18:17;;;;;;;134.50;77.90;;;;;;;4.77;96.55;102884.25;5053194;28;20797;-45
2022/03/26 03:20:45;;;;;;;122.97;77.50;;;;;;;4.78;97.09;102878.84;5052866;28;20459;-45
2022/03/26 03:23:13;;;;;;;114.23;71.10;;;;;;;4.79;97.15;102869.09;5053404;28;21024;-44
2022/03/26 03:25:41;;;;;;;131.20;77.00;;;;;;;4.80;96.92;102881.38;5052969;28;20443;-46
2022/03/26 03:28:09;;;;;;;132.23;77.47;;;;;;;4.80;96.96;102869.03;5052635;28;20467;-45
2022/03/26 03:30:38;;;;;;;119.07;68.67;;;;;;;4.81;96.89;102861.91;5053087;28;20524;-45
2022/03/26 03:33:06;;;;;;;114.07;72.30;;;;;;;4.82;97.14;102864.47;5053039;28;20471;-45
2022/03/26 03:35:33;;;;;;;124.80;73.37;;;;;;;4.83;96.73;102866.16;5053207;28;20434;-45
2022/03/26 03:38:01;;;;;;;136.13;74.50;;;;;;;4.85;97.34;102868.69;5052747;28;20459;-45
2022/03/26 03:40:28;;;;;;;129.83;72.30;;;;;;;4.85;96.85;102861.59;5052645;28;20931;-46
2022/03/26 03:42:56;;;;;;;133.23;75.37;;;;;;;4.88;96.75;102865.81;5052945;28;20457;-45
2022/03/26 03:45:24;;;;;;;127.77;71.63;;;;;;;4.90;96.83;102862.13;5045287;28;20431;-46
2022/03/26 03:47:53;;;;;;;129.93;71.60;;;;;;;4.92;96.23;102872.59;5044107;28;20471;-49
2022/03/26 03:50:21;;;;;;;116.87;70.03;;;;;;;4.94;96.25;102868.88;5052665;28;20434;-44
2022/03/26 03:52:48;;;;;;;121.47;71.77;;;;;;;4.97;96.05;102873.97;5052738;28;20470;-45
2022/03/26 03:55:16;;;;;;;127.70;73.53;;;;;;;4.97;96.06;102878.38;5052967;28;20431;-45
2022/03/26 03:57:45;;;;;;;120.87;72.60;;;;;;;4.98;96.29;102869.50;5052180;28;20459;-46
2022/03/26 04:00:15;;;;;;;132.57;74.07;;;;;;;4.99;95.61;102873.84;5052418;28;20515;-44
2022/03/26 04:02:44;;;;;;;129.20;72.93;;;;;;;5.01;95.63;102874.59;5052476;28;20438;-43
2022/03/26 04:05:13;;;;;;;122.50;68.23;;;;;;;4.99;95.27;102872.03;5052372;28;20743;-44
2022/03/26 04:07:43;;;;;;;110.70;69.10;;;;;;;5.04;94.56;102866.44;5051933;28;20494;-46
2022/03/26 04:10:11;;;;;;;110.57;69.17;;;;;;;5.06;94.94;102871.59;5052421;28;20458;-42
2022/03/26 04:12:40;;;;;;;122.57;72.50;;;;;;;5.06;94.67;102864.53;5052352;28;20467;-45
2022/03/26 04:15:10;;;;;;;118.03;69.27;;;;;;;5.08;94.18;102865.25;5052803;28;20431;-45
2022/03/26 04:17:38;;;;;;;99.13;60.97;;;;;;;5.12;94.12;102863.22;5051822;28;20466;-43
2022/03/26 04:20:09;;;;;;;109.60;67.27;;;;;;;5.12;93.61;102865.88;5052373;28;20431;-45
2022/03/26 04:22:39;;;;;;;102.63;62.27;;;;;;;5.16;94.08;102870.00;5052068;28;20490;-46
2022/03/26 04:25:08;;;;;;;91.67;60.33;;;;;;;5.16;93.86;102867.34;5052309;28;20427;-45
2022/03/26 04:27:35;;;;;;;101.70;64.43;;;;;;;5.20;93.09;102860.88;5051845;28;20910;-45
2022/03/26 04:30:04;;;;;;;101.87;62.63;;;;;;;5.23;92.86;102868.59;5052145;28;20447;-44
2022/03/26 04:32:32;;;;;;;99.13;61.77;;;;;;;5.22;92.92;102866.91;5051879;28;20538;-45
2022/03/26 04:34:59;;;;;;;117.43;66.97;;;;;;;5.24;92.96;102867.66;5052215;28;20431;-46
2022/03/26 04:37:27;;;;;;;107.30;63.63;;;;;;;5.22;93.31;102864.28;5044006;28;21021;-44
2022/03/26 04:39:56;;;;;;;100.37;61.70;;;;;;;5.20;93.75;102861.72;5048428;28;20431;-44
2022/03/26 04:42:23;;;;;;;90.63;58.90;;;;;;;5.19;93.96;102859.19;5051939;28;20451;-49
2022/03/26 04:44:51;;;;;;;104.07;62.60;;;;;;;5.19;94.13;102867.13;5052059;28;20942;-45
2022/03/26 04:47:19;;;;;;;97.37;59.03;;;;;;;5.20;93.93;102867.00;5051822;28;20463;-43
2022/03/26 04:49:46;;;;;;;86.03;58.27;;;;;;;5.21;93.48;102875.81;5051958;28;20447;-43
2022/03/26 04:52:14;;;;;;;101.17;58.13;;;;;;;5.21;93.71;102881.94;5051467;28;20469;-47
2022/03/26 04:54:42;;;;;;;104.07;61.20;;;;;;;5.24;93.36;102883.50;5051963;28;20852;-44
2022/03/26 04:57:13;;;;;;;93.13;60.50;;;;;;;5.24;93.30;102876.44;5054827;28;20474;-50
2022/03/26 04:59:41;;;;;;;96.50;61.10;;;;;;;5.28;92.74;102885.84;5056105;28;20434;-46
2022/03/26 05:02:09;;;;;;;91.73;56.80;;;;;;;5.33;91.94;102881.06;5055645;28;20457;-44
2022/03/26 05:04:37;;;;;;;80.97;53.33;;;;;;;5.43;88.40;102878.59;5055940;28;20438;-45
2022/03/26 05:07:45;;;;;;;91.87;56.37;;;;;;;5.54;85.92;102879.50;5055424;28;20474;-44
2022/03/26 05:09:53;;;;;;;75.97;52.30;;;;;;;5.65;84.84;102876.06;5055725;28;20523;-44
2022/03/26 05:12:22;;;;;;;79.70;52.63;;;;;;;5.82;76.51;102878.34;5055608;28;20546;-44
2022/03/26 05:14:50;;;;;;;78.93;51.47;;;;;;;5.96;73.16;102874.66;5055499;28;20501;-45
2022/03/26 05:17:17;;;;;;;80.10;49.17;;;;;;;6.11;70.26;102881.47;5055353;28;20458;-47
2022/03/26 05:19:45;;;;;;;67.30;49.00;;;;;;;6.24;70.46;102873.44;5055917;28;20431;-43
2022/03/26 05:22:13;;;;;;;60.80;50.07;;;;;;;6.33;72.48;102880.69;5055191;28;20499;-45
2022/03/26 05:24:40;;;;;;;67.70;50.03;;;;;;;6.42;73.64;102882.63;5055713;28;20438;-46
2022/03/26 05:27:08;;;;;;;67.23;48.40;;;;;;;6.51;74.20;102874.81;5055179;28;20467;-43
2022/03/26 05:29:37;;;;;;;63.30;46.03;;;;;;;6.59;76.43;102877.72;5055549;28;21072;-43
2022/03/26 05:32:06;;;;;;;59.83;47.10;;;;;;;6.66;78.19;102873.63;5055312;28;20821;-45
2022/03/26 05:34:34;;;;;;;61.60;46.63;;;;;;;6.75;78.94;102880.00;5055179;28;20479;-45
2022/03/26 05:37:01;;;;;;;53.03;44.23;;;;;;;6.82;81.04;102881.22;5054972;28;20538;-48
2022/03/26 05:39:29;;;;;;;63.23;44.47;;;;;;;6.89;82.88;102886.91;5055639;28;20441;-45
2022/03/26 05:41:57;;;;;;;64.73;48.73;;;;;;;6.91;85.53;102890.25;5054862;28;20461;-44
2022/03/26 05:44:25;;;;;;;61.47;46.07;;;;;;;6.98;85.90;102902.94;5053309;28;20429;-45
2022/03/26 05:46:54;;;;;;;58.13;46.33;;;;;;;7.02;86.65;102891.09;5043162;28;20848;-47
2022/03/26 05:49:22;;;;;;;60.70;45.33;;;;;;;7.10;87.92;102901.13;5035312;28;20432;-44
2022/03/26 05:51:49;;;;;;;58.53;44.17;;;;;;;7.14;89.40;102903.41;5034680;28;20504;-45
2022/03/26 05:54:17;;;;;;;51.47;45.17;;;;;;;7.21;90.73;102901.09;5035166;28;20481;-45
2022/03/26 05:56:51;;;;;;;57.60;45.73;;;;;;;7.28;91.38;102901.47;5034301;28;21082;-44
2022/03/26 05:59:20;;;;;;;52.00;44.00;;;;;;;7.32;92.45;102890.47;5035178;28;20524;-47
2022/03/26 06:01:49;;;;;;;56.17;45.80;;;;;;;7.35;93.75;102892.06;5034582;28;20543;-43
2022/03/26 06:04:18;;;;;;;49.83;44.40;;;;;;;7.34;93.81;102899.16;5034846;28;20432;-46
2022/03/26 06:06:46;;;;;;;49.37;44.20;;;;;;;7.36;94.40;102889.25;5034091;28;20460;-45
2022/03/26 06:09:14;;;;;;;51.00;42.90;;;;;;;7.41;95.01;102892.38;5034147;28;20532;-46
2022/03/26 06:11:42;;;;;;;56.67;44.23;;;;;;;7.50;94.65;102902.25;5034887;28;20462;-45
2022/03/26 06:14:09;;;;;;;59.00;44.17;;;;;;;7.74;94.07;102900.25;5034867;28;20482;-45
2022/03/26 06:16:37;;;;;;;52.00;42.73;;;;;;;7.87;94.64;102902.75;5034425;28;21004;-44
2022/03/26 06:19:05;;;;;;;65.57;44.30;;;;;;;7.93;96.94;102904.91;5034485;28;20807;-44
2022/03/26 06:21:34;;;;;;;47.27;42.23;;;;;;;8.00;97.38;102915.88;5034072;28;20922;-45
2022/03/26 06:24:02;;;;;;;51.10;41.30;;;;;;;7.98;98.47;102905.38;5034570;28;20456;-46
2022/03/26 06:26:30;;;;;;;49.20;42.10;;;;;;;7.97;98.55;102902.84;5034042;28;20822;-46
2022/03/26 06:28:58;;;;;;;45.70;40.07;;;;;;;7.99;98.64;102898.25;5034364;28;20812;-50
2022/03/26 06:31:26;;;;;;;46.83;40.77;;;;;;;8.01;98.54;102905.09;5034064;28;20862;-45
2022/03/26 06:33:53;;;;;;;46.13;41.20;;;;;;;8.03;98.62;102903.19;5034547;28;20670;-44
2022/03/26 06:36:21;;;;;;;54.30;43.17;;;;;;;8.05;98.26;102895.94;5033708;28;21066;-44
2022/03/26 06:38:50;;;;;;;43.40;38.70;;;;;;;8.09;98.37;102910.66;5034182;28;20443;-43
2022/03/26 06:41:18;;;;;;;42.13;36.87;;;;;;;8.11;97.41;102907.84;5034227;28;20452;-46
2022/03/26 06:43:46;;;;;;;43.17;37.10;;;;;;;8.19;97.41;102906.22;5034205;28;20459;-46
2022/03/26 06:46:14;;;;;;;41.90;37.37;;;;;;;8.22;97.89;102907.78;5041703;28;20451;-44
2022/03/26 06:48:42;;;;;;;40.77;36.57;;;;;;;8.26;97.63;102912.75;5033699;28;20436;-43
2022/03/26 06:51:09;;;;;;;44.53;38.70;;;;;;;8.28;97.53;102902.84;5033530;28;21082;-44
2022/03/26 06:53:37;;;;;;;46.60;37.70;;;;;;;8.34;97.34;102907.63;5034290;28;20434;-47
2022/03/26 06:56:07;;;;;;;39.77;35.97;;;;;;;8.42;97.54;102903.50;5033695;28;20442;-47
2022/03/26 06:58:36;;;;;;;38.73;34.63;;;;;;;8.38;97.45;102902.91;5033921;28;20836;-46
2022/03/26 07:01:04;;;;;;;39.60;35.57;;;;;;;8.51;97.08;102897.41;5033225;28;20478;-49
2022/03/26 07:03:32;;;;;;;39.17;34.90;;;;;;;8.44;96.47;102904.19;5033919;28;20436;-47
2022/03/26 07:05:59;;;;;;;37.70;34.20;;;;;;;8.54;96.37;102913.09;5033391;28;20527;-47
2022/03/26 07:08:27;;;;;;;36.90;33.57;;;;;;;8.65;95.95;102915.69;5033747;28;20443;-50
2022/03/26 07:10:55;;;;;;;35.27;32.23;;;;;;;8.72;96.42;102903.53;5033309;28;20539;-44
2022/03/26 07:13:23;;;;;;;34.20;30.73;;;;;;;8.80;96.54;102901.91;5033641;28;20432;-46
2022/03/26 07:15:51;;;;;;;31.93;29.13;;;;;;;8.82;96.73;102907.94;5033020;28;20491;-46
2022/03/26 07:18:19;;;;;;;32.40;29.23;;;;;;;8.86;96.66;102898.72;5033637;28;20466;-47
2022/03/26 07:20:46;;;;;;;31.60;28.40;;;;;;;9.01;96.65;102896.53;5033081;28;20467;-46
2022/03/26 07:23:14;;;;;;;31.33;28.53;;;;;;;9.21;97.47;102895.63;5033613;28;20436;-48
2022/03/26 07:25:43;;;;;;;30.00;27.47;;;;;;;9.37;97.59;102905.75;5033268;28;20438;-43
2022/03/26 07:28:11;;;;;;;29.13;26.73;;;;;;;9.48;98.59;102907.47;5032700;28;20466;-46
2022/03/26 07:30:40;;;;;;;30.70;28.03;;;;;;;9.56;99.02;102902.31;5033177;28;20456;-46
2022/03/26 07:33:08;;;;;;;26.70;24.67;;;;;;;9.53;98.93;102907.91;5033266;28;20531;-46
2022/03/26 07:35:35;;;;;;;28.10;26.20;;;;;;;9.50;99.06;102917.00;5033136;28;20482;-46
2022/03/26 07:38:03;;;;;;;27.17;25.03;;;;;;;9.49;98.52;102920.66;5032620;28;20888;-46
2022/03/26 07:40:31;;;;;;;25.33;23.27;;;;;;;9.52;98.34;102915.06;5057745;22;20420;-45
2022/03/26 07:42:59;;;;;;;24.13;22.57;;;;;;;9.51;98.47;102912.50;5032220;28;20436;-45
2022/03/26 07:45:26;;;;;;;24.10;22.60;;;;;;;9.43;98.81;102915.88;5028161;28;20521;-47
2022/03/26 07:47:56;;;;;;;24.90;22.77;;;;;;;9.65;98.50;102912.09;5027968;28;20459;-48
2022/03/26 07:50:24;;;;;;;24.77;22.97;;;;;;;9.74;99.17;102913.94;5032160;28;20463;-48
2022/03/26 07:52:51;;;;;;;24.00;22.40;;;;;;;9.93;99.18;102913.97;5032150;28;20471;-48
2022/03/26 07:55:20;;;;;;;21.77;20.57;;;;;;;9.79;99.31;102925.91;5031810;28;20475;-50
2022/03/26 07:57:48;;;;;;;21.87;20.40;;;;;;;9.70;98.94;102920.56;5030200;28;20464;-50
2022/03/26 08:00:17;;;;;;;22.53;20.83;;;;;;;9.76;99.25;102925.31;5031770;28;20927;-48
2022/03/26 08:02:45;;;;;;;22.63;21.13;;;;;;;9.81;99.42;102926.59;5031849;28;20436;-47
2022/03/26 08:05:14;;;;;;;20.27;18.80;;;;;;;9.83;99.06;102934.44;5031977;28;20949;-46
2022/03/26 08:07:41;;;;;;;23.23;21.53;;;;;;;9.85;99.28;102937.81;5031553;28;20544;-47
2022/03/26 08:10:09;;;;;;;22.23;20.83;;;;;;;9.92;98.79;102942.44;5031652;28;20475;-48
2022/03/26 08:12:37;;;;;;;20.53;19.20;;;;;;;9.86;98.61;102947.47;5031692;28;20446;-45
2022/03/26 08:15:06;;;;;;;20.50;19.20;;;;;;;9.70;98.75;102936.53;5032255;28;20476;-46
2022/03/26 08:17:34;;;;;;;20.93;19.70;;;;;;;9.72;98.97;102946.06;5031267;28;20543;-45
2022/03/26 08:20:02;;;;;;;19.90;18.73;;;;;;;9.76;98.84;102936.84;5031673;28;20438;-49
2022/03/26 08:22:31;;;;;;;21.43;19.63;;;;;;;9.72;98.86;102934.56;5031646;28;20495;-47
2022/03/26 08:24:59;;;;;;;20.67;19.47;;;;;;;9.68;99.23;102935.81;5031916;28;20840;-49
2022/03/26 08:27:27;;;;;;;20.20;18.87;;;;;;;9.60;99.04;102946.31;5030675;28;20998;-48
2022/03/26 08:29:54;;;;;;;21.83;20.43;;;;;;;9.53;99.00;102934.53;5031612;28;20520;-46
2022/03/26 08:32:22;;;;;;;21.43;20.03;;;;;;;9.55;98.57;102933.44;5031301;28;20456;-48
2022/03/26 08:34:50;;;;;;;21.60;20.30;;;;;;;9.43;99.04;102935.34;5031337;28;20562;-46
2022/03/26 08:37:18;;;;;;;20.33;19.10;;;;;;;9.40;98.88;102943.63;5031206;28;20464;-44
2022/03/26 08:39:47;;;;;;;20.30;18.90;;;;;;;9.49;99.06;102947.28;5031898;28;20459;-44
2022/03/26 08:42:14;;;;;;;19.27;18.10;;;;;;;9.56;99.10;102945.75;5030966;28;20470;-50
2022/03/26 08:44:42;;;;;;;19.90;18.20;;;;;;;9.72;98.73;102951.41;5031641;28;20990;-46
2022/03/26 08:47:11;;;;;;;20.70;19.03;;;;;;;9.84;98.17;102944.97;5022843;28;20478;-44
2022/03/26 08:49:40;;;;;;;19.70;18.60;;;;;;;9.73;98.38;102957.56;5031347;28;20439;-48
2022/03/26 08:52:08;;;;;;;19.80;18.60;;;;;;;9.74;98.46;102956.56;5031129;28;20502;-46
2022/03/26 08:54:35;;;;;;;19.80;18.70;;;;;;;9.95;98.18;102963.50;5031304;28;20785;-47
2022/03/26 08:57:05;;;;;;;19.43;18.23;;;;;;;10.02;97.27;102972.63;5030949;28;20464;-48
2022/03/26 08:59:32;;;;;;;20.00;18.80;;;;;;;10.09;96.70;102954.25;5031479;28;20850;-49
2022/03/26 09:02:00;;;;;;;18.80;17.70;;;;;;;10.09;96.40;102966.75;5031101;28;20466;-48
2022/03/26 09:04:28;;;;;;;18.20;17.10;;;;;;;10.02;96.23;102975.28;5031513;28;20803;-45
2022/03/26 09:06:56;;;;;;;16.97;15.77;;;;;;;10.09;95.52;102972.06;5030794;28;20470;-44
2022/03/26 09:09:24;;;;;;;17.00;15.93;;;;;;;10.11;95.13;102978.94;5031120;28;20515;-46
2022/03/26 09:11:53;;;;;;;17.63;16.40;;;;;;;10.19;94.68;102972.94;5031110;28;20558;-46
2022/03/26 09:14:22;;;;;;;18.10;16.87;;;;;;;10.51;94.28;102976.19;5031118;28;20435;-45
2022/03/26 09:16:50;;;;;;;18.03;17.00;;;;;;;10.64;92.33;102975.84;5030858;28;20474;-48
2022/03/26 09:19:17;;;;;;;16.40;15.47;;;;;;;10.59;92.39;102986.97;5031452;28;20847;-49
2022/03/26 09:21:46;;;;;;;16.53;15.73;;;;;;;10.51;92.24;102987.66;5030979;28;20547;-49
2022/03/26 09:24:15;;;;;;;15.90;15.10;;;;;;;10.43;92.27;102990.22;5020926;28;20499;-47
2022/03/26 09:26:43;;;;;;;16.33;15.37;;;;;;;10.59;92.30;102988.78;5011174;28;20457;-44
2022/03/26 09:29:11;;;;;;;15.67;14.93;;;;;;;10.73;90.83;102991.00;5011405;28;20433;-47
2022/03/26 09:31:40;;;;;;;17.70;16.60;;;;;;;10.79;90.30;102995.78;5010990;28;20460;-45
2022/03/26 09:34:08;;;;;;;16.47;15.37;;;;;;;10.74;90.46;102987.38;5011461;28;20437;-50
2022/03/26 09:36:36;;;;;;;14.90;14.40;;;;;;;10.46;91.60;102989.94;5010900;28;21019;-47
2022/03/26 09:39:04;;;;;;;14.70;14.10;;;;;;;10.74;90.33;102990.88;5011369;28;20524;-46
2022/03/26 09:41:32;;;;;;;15.40;14.53;;;;;;;11.00;89.72;102999.97;5010979;28;20915;-47
2022/03/26 09:44:00;;;;;;;14.30;13.70;;;;;;;10.90;88.51;102987.63;5014309;28;21016;-45
2022/03/26 09:46:28;;;;;;;14.63;13.87;;;;;;;10.92;88.19;102986.50;5014296;28;20464;-45
2022/03/26 09:48:57;;;;;;;15.03;14.33;;;;;;;10.77;89.61;102997.75;5014781;28;21019;-46
2022/03/26 09:51:25;;;;;;;13.37;12.93;;;;;;;10.57;89.03;103001.44;5014539;28;20467;-45
2022/03/26 09:53:54;;;;;;;12.80;12.40;;;;;;;10.26;90.46;103004.25;5014672;28;20432;-48
2022/03/26 09:56:23;;;;;;;13.27;12.77;;;;;;;10.62;90.73;103000.03;5014004;28;20471;-45
2022/03/26 09:58:52;;;;;;;13.57;13.10;;;;;;;10.68;88.73;102999.47;5014817;28;20531;-49
2022/03/26 10:01:20;;;;;;;12.80;12.30;;;;;;;10.75;89.77;102999.75;5014429;28;20449;-49
2022/03/26 10:04:11;;;;;;;13.63;13.13;;;;;;;10.78;88.66;103002.13;5014618;28;20433;-47
2022/03/26 10:06:49;;;;;;;11.70;11.20;;;;;;;10.62;88.88;102993.84;5013212;28;20966;-45
2022/03/26 10:09:26;;;;;;;12.53;12.03;;;;;;;10.77;87.99;103000.44;5014507;28;20567;-47
2022/03/26 10:12:01;;;;;;;10.93;10.63;;;;;;;10.67;87.51;102994.25;5014084;28;20456;-45
2022/03/26 10:14:40;;;;;;;12.03;11.57;;;;;;;10.67;87.51;103011.09;5014552;28;20917;-47
2022/03/26 10:17:13;;;;;;;12.20;11.80;;;;;;;10.62;88.43;102986.69;5013855;28;20479;-50
2022/03/26 10:19:48;;;;;;;12.37;11.97;;;;;;;10.46;88.87;102995.25;5014754;28;20524;-46
2022/03/26 10:22:26;;;;;;;12.77;12.00;;;;;;;10.48;88.67;102982.63;5014017;28;20543;-48
2022/03/26 10:24:54;;;;;;;12.97;12.37;;;;;;;10.43;89.40;102987.53;5014295;28;20516;-47
2022/03/26 10:27:23;;;;;;;12.70;12.30;;;;;;;10.44;88.53;102994.56;5013389;28;20544;-46
2022/03/26 10:29:52;;;;;;;12.90;12.50;;;;;;;10.45;88.61;102995.41;5014288;28;20849;-46
2022/03/26 10:32:45;;;;;;;14.40;13.87;;;;;;;10.61;89.62;102997.50;5013971;28;20560;-47
2022/03/26 10:35:21;;;;;;;14.17;13.67;;;;;;;10.57;88.11;102996.09;5013866;28;20444;-45
2022/03/26 10:37:53;;;;;;;13.40;12.73;;;;;;;10.52;87.91;102993.84;5013451;28;20839;-45
2022/03/26 10:40:24;;;;;;;13.30;12.50;;;;;;;10.69;85.85;102992.31;5013692;28;20516;-46
2022/03/26 10:42:58;;;;;;;12.47;12.00;;;;;;;10.68;85.78;102986.13;5013755;28;20456;-46
2022/03/26 10:45:27;;;;;;;12.97;12.37;;;;;;;10.89;85.92;102980.59;5020354;28;20512;-49
2022/03/26 10:47:56;;;;;;;12.57;12.10;;;;;;;10.97;85.35;102980.72;5029225;28;20487;-47
2022/03/26 10:50:27;;;;;;;13.27;12.77;;;;;;;11.09;85.57;102985.75;5032857;28;20551;-49
2022/03/26 10:52:55;;;;;;;13.10;12.50;;;;;;;11.19;86.28;102982.19;5033236;28;20531;-45
2022/03/26 10:55:24;;;;;;;13.23;12.63;;;;;;;11.30;85.24;102982.00;5033293;28;20512;-46
2022/03/26 10:57:52;;;;;;;12.07;11.67;;;;;;;11.16;83.29;102971.81;5032586;28;20550;-49
2022/03/26 11:00:20;;;;;;;12.90;12.17;;;;;;;11.00;83.17;102964.41;5032812;28;20467;-46
2022/03/26 11:02:49;;;;;;;12.77;12.27;;;;;;;11.02;83.68;102979.28;5033125;28;20470;-48
2022/03/26 11:05:17;;;;;;;12.60;12.20;;;;;;;11.36;82.79;102971.56;5033237;28;20791;-47
2022/03/26 11:07:47;;;;;;;12.80;12.30;;;;;;;11.36;81.40;102978.75;5032491;28;20475;-51
2022/03/26 11:10:15;;;;;;;11.87;11.47;;;;;;;11.24;82.08;102969.22;5033050;28;20454;-46
2022/03/26 11:12:45;;;;;;;12.23;11.70;;;;;;;11.51;80.43;102958.56;5033010;28;20551;-46
2022/03/26 11:15:19;;;;;;;12.07;11.50;;;;;;;11.56;80.55;102948.25;5032811;28;20515;-45
2022/03/26 11:18:13;;;;;;;12.60;12.20;;;;;;;11.74;81.54;102951.84;5032425;28;20555;-45